createdAt,value
2019-03-24T00:00:08.883Z,97494.98
2019-03-24T00:02:43.429Z,97484.63
2019-03-24T00:05:16.132Z,97486.22
2019-03-24T00:07:48.830Z,97493.72
2019-03-24T00:10:21.546Z,97493.56
2019-03-24T00:12:54.204Z,97497.41
2019-03-24T00:15:27.459Z,97488.39
2019-03-24T00:18:00.073Z,97481.84
2019-03-24T00:20:32.709Z,97481.19
2019-03-24T00:23:05.481Z,97486.02
2019-03-24T00:25:38.117Z,97486.66
2019-03-24T00:28:11.735Z,97487.42
2019-03-24T00:30:44.447Z,97485.78
2019-03-24T00:33:17.001Z,97486.44
2019-03-24T00:35:49.713Z,97474.34
2019-03-24T00:38:22.330Z,97478.27
2019-03-24T00:40:55.042Z,97479.25
2019-03-24T00:43:27.734Z,97485.62
2019-03-24T00:46:00.401Z,97478.19
2019-03-24T00:48:33.018Z,97479.22
2019-03-24T00:51:05.726Z,97472.85
2019-03-24T00:53:38.653Z,97475.84
2019-03-24T00:56:12.452Z,97474.34
2019-03-24T00:58:45.154Z,97477.32
2019-03-24T01:01:17.863Z,97464.31
2019-03-24T01:03:50.565Z,97462.95
2019-03-24T01:06:23.207Z,97464.72
2019-03-24T01:08:55.892Z,97466.77
2019-03-24T01:11:28.941Z,97465.11
2019-03-24T01:14:01.560Z,97463.80
2019-03-24T01:16:34.231Z,97462.13
2019-03-24T01:19:07.081Z,97455.54
2019-03-24T01:21:39.715Z,97458.69
2019-03-24T01:24:12.293Z,97454.16
2019-03-24T01:26:45.210Z,97444.78
2019-03-24T01:29:17.769Z,97442.46
2019-03-24T01:31:50.447Z,97444.22
2019-03-24T01:34:23.357Z,97437.05
2019-03-24T01:36:55.925Z,97435.58
2019-03-24T01:39:28.557Z,97431.13
2019-03-24T01:42:01.282Z,97425.02
2019-03-24T01:44:34.193Z,97427.88
2019-03-24T01:47:06.904Z,97431.70
2019-03-24T01:49:39.521Z,97427.80
2019-03-24T01:52:12.216Z,97431.69
2019-03-24T01:54:45.088Z,97435.59
2019-03-24T01:57:17.727Z,97422.30
2019-03-24T01:59:50.662Z,97426.41
2019-03-24T02:02:23.386Z,97421.84
2019-03-24T02:04:56.011Z,97420.22
2019-03-24T02:07:28.635Z,97421.31
2019-03-24T02:10:01.264Z,97419.46
2019-03-24T02:12:33.912Z,97419.29
2019-03-24T02:15:07.098Z,97418.53
2019-03-24T02:17:39.742Z,97423.02
2019-03-24T02:20:13.423Z,97428.20
2019-03-24T02:22:46.096Z,97415.20
2019-03-24T02:25:18.651Z,97415.19
2019-03-24T02:27:51.204Z,97407.77
2019-03-24T02:30:25.653Z,97411.28
2019-03-24T02:32:58.708Z,97405.08
2019-03-24T02:35:32.405Z,97409.07
2019-03-24T02:38:06.010Z,97407.67
2019-03-24T02:40:38.647Z,97407.28
2019-03-24T02:43:12.167Z,97404.24
2019-03-24T02:45:44.858Z,97400.98
2019-03-24T02:48:18.374Z,97404.72
2019-03-24T02:50:52.292Z,97407.94
2019-03-24T02:53:24.860Z,97399.69
2019-03-24T02:55:57.487Z,97394.70
2019-03-24T02:58:30.062Z,97394.58
2019-03-24T03:01:03.736Z,97390.51
2019-03-24T03:03:36.324Z,97389.58
2019-03-24T03:06:08.879Z,97392.63
2019-03-24T03:08:41.949Z,97388.83
2019-03-24T03:11:14.643Z,97389.18
2019-03-24T03:13:47.264Z,97390.11
2019-03-24T03:16:20.070Z,97395.51
2019-03-24T03:18:52.773Z,97389.58
2019-03-24T03:21:25.610Z,97387.51
2019-03-24T03:23:59.321Z,97390.30
2019-03-24T03:26:31.855Z,97391.61
2019-03-24T03:29:04.537Z,97391.23
2019-03-24T03:31:37.150Z,97395.95
2019-03-24T03:34:09.860Z,97390.47
2019-03-24T03:36:42.810Z,97396.93
2019-03-24T03:39:15.345Z,97395.89
2019-03-24T03:41:48.034Z,97395.07
2019-03-24T03:44:20.729Z,97395.59
2019-03-24T03:46:53.494Z,97392.44
2019-03-24T03:49:26.213Z,97397.94
2019-03-24T03:51:58.760Z,97392.64
2019-03-24T03:54:31.385Z,97392.53
2019-03-24T03:57:03.929Z,97386.24
2019-03-24T03:59:36.491Z,97385.48
2019-03-24T04:02:09.184Z,97384.08
2019-03-24T04:04:41.728Z,97382.02
2019-03-24T04:07:14.353Z,97380.80
2019-03-24T04:09:46.905Z,97376.00
2019-03-24T04:12:19.872Z,97369.06
2019-03-24T04:14:53.570Z,97365.63
2019-03-24T04:17:26.117Z,97368.14
2019-03-24T04:19:58.753Z,97367.41
2019-03-24T04:22:31.428Z,97363.83
2019-03-24T04:25:04.065Z,97364.09
2019-03-24T04:27:37.671Z,97368.95
2019-03-24T04:30:11.149Z,97365.53
2019-03-24T04:32:44.074Z,97369.42
2019-03-24T04:35:16.764Z,97368.82
2019-03-24T04:37:49.311Z,97365.42
2019-03-24T04:40:22.236Z,97366.34
2019-03-24T04:42:54.771Z,97362.31
2019-03-24T04:45:27.320Z,97366.44
2019-03-24T04:47:59.991Z,97364.64
2019-03-24T04:50:32.539Z,97358.13
2019-03-24T04:53:05.148Z,97365.45
2019-03-24T04:55:37.710Z,97365.78
2019-03-24T04:58:10.326Z,97375.08
2019-03-24T05:00:43.116Z,97378.11
2019-03-24T05:03:15.812Z,97374.41
2019-03-24T05:05:48.825Z,97373.49
2019-03-24T05:08:21.501Z,97360.24
2019-03-24T05:10:54.058Z,97360.97
2019-03-24T05:13:26.961Z,97360.77
2019-03-24T05:16:00.887Z,97366.02
2019-03-24T05:18:33.614Z,97375.98
2019-03-24T05:21:06.358Z,97365.89
2019-03-24T05:23:39.223Z,97365.33
2019-03-24T05:26:12.506Z,97370.95
2019-03-24T05:28:45.046Z,97371.07
2019-03-24T05:31:17.599Z,97375.08
2019-03-24T05:33:50.133Z,97380.08
2019-03-24T05:36:22.993Z,97369.28
2019-03-24T05:38:55.604Z,97371.53
2019-03-24T05:41:28.157Z,97370.55
2019-03-24T05:44:00.704Z,97375.02
2019-03-24T05:46:33.268Z,97375.48
2019-03-24T05:49:05.802Z,97368.17
2019-03-24T05:51:38.787Z,97375.55
2019-03-24T05:54:11.992Z,97373.60
2019-03-24T05:56:45.022Z,97371.45
2019-03-24T05:59:18.162Z,97371.40
2019-03-24T06:01:50.716Z,97377.30
2019-03-24T06:04:23.251Z,97382.98
2019-03-24T06:06:55.816Z,97385.24
2019-03-24T06:09:28.352Z,97381.92
2019-03-24T06:12:00.986Z,97383.22
2019-03-24T06:14:33.601Z,97380.24
2019-03-24T06:17:06.328Z,97381.54
2019-03-24T06:19:38.901Z,97380.47
2019-03-24T06:22:12.292Z,97384.22
2019-03-24T06:24:44.912Z,97378.58
2019-03-24T06:27:17.600Z,97376.91
2019-03-24T06:29:50.137Z,97374.16
2019-03-24T06:32:23.042Z,97379.34
2019-03-24T06:34:55.694Z,97379.20
2019-03-24T06:37:28.699Z,97380.42
2019-03-24T06:40:01.302Z,97380.08
2019-03-24T06:42:33.855Z,97374.92
2019-03-24T06:45:07.108Z,97374.61
2019-03-24T06:47:40.813Z,97372.61
2019-03-24T06:50:15.179Z,97373.93
2019-03-24T06:52:47.869Z,97368.87
2019-03-24T06:55:20.694Z,97372.78
2019-03-24T06:57:53.303Z,97369.45
2019-03-24T07:00:26.076Z,97375.01
2019-03-24T07:02:58.772Z,97379.96
2019-03-24T07:05:31.483Z,97378.18
2019-03-24T07:08:04.084Z,97367.91
2019-03-24T07:10:36.691Z,97374.20
2019-03-24T07:13:09.204Z,97375.59
2019-03-24T07:15:41.773Z,97369.56
2019-03-24T07:18:14.494Z,97370.39
2019-03-24T07:20:47.095Z,97371.86
2019-03-24T07:23:19.719Z,97372.47
2019-03-24T07:25:52.356Z,97361.69
2019-03-24T07:28:25.091Z,97362.58
2019-03-24T07:30:58.904Z,97354.82
2019-03-24T07:33:31.454Z,97361.73
2019-03-24T07:36:04.160Z,97358.37
2019-03-24T07:38:36.827Z,97357.97
2019-03-24T07:41:09.433Z,97349.88
2019-03-24T07:43:42.034Z,97355.00
2019-03-24T07:46:14.598Z,97353.02
2019-03-24T07:48:47.205Z,97356.36
2019-03-24T07:51:19.760Z,97349.66
2019-03-24T07:53:52.408Z,97353.78
2019-03-24T07:56:24.918Z,97359.25
2019-03-24T07:58:57.453Z,97352.73
2019-03-24T08:01:30.054Z,97345.17
2019-03-24T08:04:02.680Z,97347.67
2019-03-24T08:06:35.222Z,97350.51
2019-03-24T08:09:08.670Z,97342.71
2019-03-24T08:11:41.212Z,97341.61
2019-03-24T08:14:13.737Z,97348.16
2019-03-24T08:16:46.432Z,97345.81
2019-03-24T08:19:18.978Z,97338.59
2019-03-24T08:21:51.514Z,97334.55
2019-03-24T08:24:24.377Z,97339.55
2019-03-24T08:26:57.286Z,97328.23
2019-03-24T08:29:29.878Z,97325.17
2019-03-24T08:32:02.737Z,97321.31
2019-03-24T08:34:35.279Z,97320.19
2019-03-24T08:37:08.022Z,97319.79
2019-03-24T08:39:40.544Z,97317.86
2019-03-24T08:42:13.147Z,97313.48
2019-03-24T08:44:46.161Z,97313.77
2019-03-24T08:47:18.716Z,97305.92
2019-03-24T08:49:51.689Z,97302.83
2019-03-24T08:52:24.332Z,97296.55
2019-03-24T08:54:59.632Z,97293.29
2019-03-24T08:57:32.474Z,97286.06
2019-03-24T09:00:05.599Z,97282.27
2019-03-24T09:02:38.334Z,97281.22
2019-03-24T09:05:12.259Z,97274.19
2019-03-24T09:07:44.926Z,97271.50
2019-03-24T09:10:17.892Z,97278.16
2019-03-24T09:12:50.503Z,97268.52
2019-03-24T09:15:23.272Z,97266.51
2019-03-24T09:17:55.888Z,97264.52
2019-03-24T09:20:29.566Z,97255.02
2019-03-24T09:23:02.109Z,97250.19
2019-03-24T09:25:35.003Z,97260.87
2019-03-24T09:28:09.265Z,97250.16
2019-03-24T09:30:42.358Z,97250.78
2019-03-24T09:33:14.984Z,97240.11
2019-03-24T09:35:47.675Z,97244.02
2019-03-24T09:38:20.280Z,97246.94
2019-03-24T09:40:53.174Z,97241.48
2019-03-24T09:43:25.711Z,97242.19
2019-03-24T09:45:58.231Z,97241.45
2019-03-24T09:48:30.924Z,97229.01
2019-03-24T09:51:05.159Z,97232.36
2019-03-24T09:53:37.705Z,97231.23
2019-03-24T09:56:10.232Z,97231.19
2019-03-24T09:58:43.319Z,97224.41
2019-03-24T10:01:15.847Z,97218.22
2019-03-24T10:03:49.050Z,97214.38
2019-03-24T10:06:21.692Z,97215.10
2019-03-24T10:08:54.487Z,97212.54
2019-03-24T10:11:27.413Z,97212.81
2019-03-24T10:14:00.101Z,97209.95
2019-03-24T10:16:32.739Z,97205.95
2019-03-24T10:19:13.593Z,97206.91
2019-03-24T10:21:39.815Z,97204.84
2019-03-24T10:24:12.433Z,97200.09
2019-03-24T10:26:45.051Z,97197.63
2019-03-24T10:29:17.574Z,97199.06
2019-03-24T10:31:50.138Z,97197.78
2019-03-24T10:34:24.101Z,97196.31
2019-03-24T10:36:56.744Z,97195.84
2019-03-24T10:39:29.280Z,97191.03
2019-03-24T10:42:01.964Z,97192.61
2019-03-24T10:44:34.807Z,97195.67
2019-03-24T10:47:07.345Z,97200.14
2019-03-24T10:49:40.064Z,97196.22
2019-03-24T10:52:14.089Z,97189.05
2019-03-24T10:54:46.778Z,97191.87
2019-03-24T10:57:19.291Z,97182.34
2019-03-24T10:59:52.161Z,97180.70
2019-03-24T11:02:24.938Z,97175.91
2019-03-24T11:04:57.541Z,97176.42
2019-03-24T11:07:30.073Z,97176.09
2019-03-24T11:10:03.064Z,97168.50
2019-03-24T11:12:35.688Z,97175.43
2019-03-24T11:15:10.606Z,97172.75
2019-03-24T11:17:43.238Z,97172.44
2019-03-24T11:20:15.968Z,97163.87
2019-03-24T11:22:48.658Z,97160.36
2019-03-24T11:25:21.294Z,97160.05
2019-03-24T11:27:53.916Z,97164.49
2019-03-24T11:30:26.639Z,97155.44
2019-03-24T11:32:59.260Z,97161.22
2019-03-24T11:35:31.974Z,97156.50
2019-03-24T11:38:04.594Z,97159.09
2019-03-24T11:40:37.235Z,97152.46
2019-03-24T11:43:10.018Z,97153.02
2019-03-24T11:45:42.667Z,97146.88
2019-03-24T11:48:15.396Z,97148.00
2019-03-24T11:50:48.100Z,97154.05
2019-03-24T11:53:20.970Z,97141.88
2019-03-24T11:55:54.108Z,97143.70
2019-03-24T11:58:26.885Z,97140.74
2019-03-24T12:00:59.600Z,97132.11
2019-03-24T12:03:32.344Z,97127.50
2019-03-24T12:06:14.117Z,97120.64
2019-03-24T12:08:40.263Z,97108.97
2019-03-24T12:11:12.812Z,97106.94
2019-03-24T12:13:45.876Z,97104.36
2019-03-24T12:16:18.522Z,97102.63
2019-03-24T12:18:51.270Z,97107.97
2019-03-24T12:21:23.814Z,97102.80
2019-03-24T12:23:56.539Z,97095.96
2019-03-24T12:26:29.245Z,97093.67
2019-03-24T12:29:01.780Z,97090.98
2019-03-24T12:31:34.709Z,97086.72
2019-03-24T12:34:07.404Z,97081.15
2019-03-24T12:36:40.041Z,97082.94
2019-03-24T12:39:12.743Z,97080.86
2019-03-24T12:41:45.477Z,97073.16
2019-03-24T12:44:18.087Z,97072.88
2019-03-24T12:46:50.804Z,97068.84
2019-03-24T12:49:23.522Z,97067.05
2019-03-24T12:51:56.080Z,97064.75
2019-03-24T12:54:28.779Z,97062.00
2019-03-24T12:57:01.596Z,97057.29
2019-03-24T12:59:34.202Z,97052.32
2019-03-24T13:02:07.008Z,97045.71
2019-03-24T13:04:39.650Z,97045.22
2019-03-24T13:07:12.290Z,97039.72
2019-03-24T13:09:44.922Z,97043.53
2019-03-24T13:12:17.644Z,97044.39
2019-03-24T13:14:50.274Z,97037.13
2019-03-24T13:17:23.044Z,97041.17
2019-03-24T13:19:55.680Z,97040.88
2019-03-24T13:22:28.333Z,97033.03
2019-03-24T13:25:01.176Z,97029.27
2019-03-24T13:27:33.886Z,97032.34
2019-03-24T13:30:07.467Z,97037.57
2019-03-24T13:32:40.364Z,97045.42
2019-03-24T13:35:13.979Z,97041.52
2019-03-24T13:37:46.614Z,97047.07
2019-03-24T13:40:19.268Z,97040.29
2019-03-24T13:42:51.931Z,97041.91
2019-03-24T13:45:24.954Z,97041.38
2019-03-24T13:47:57.683Z,97045.92
2019-03-24T13:50:31.647Z,97052.88
2019-03-24T13:53:04.600Z,97043.77
2019-03-24T13:55:37.348Z,97047.08
2019-03-24T13:58:12.076Z,97041.63
2019-03-24T14:00:44.379Z,97047.37
2019-03-24T14:03:17.024Z,97049.59
2019-03-24T14:05:50.658Z,97047.07
2019-03-24T14:08:23.545Z,97046.50
2019-03-24T14:10:56.189Z,97042.34
2019-03-24T14:13:28.768Z,97053.35
2019-03-24T14:16:01.670Z,97046.94
2019-03-24T14:18:34.322Z,97046.54
2019-03-24T14:21:12.864Z,97044.37
2019-03-24T14:23:45.444Z,97055.73
2019-03-24T14:26:18.163Z,97051.64
2019-03-24T14:28:50.741Z,97063.92
2019-03-24T14:31:23.478Z,97060.68
2019-03-24T14:33:56.041Z,97059.74
2019-03-24T14:36:29.049Z,97060.28
2019-03-24T14:39:02.174Z,97059.42
2019-03-24T14:41:36.152Z,97057.13
2019-03-24T14:44:08.879Z,97049.31
2019-03-24T14:46:41.510Z,97052.47
2019-03-24T14:49:14.079Z,97054.55
2019-03-24T14:51:46.715Z,97047.01
2019-03-24T14:54:19.368Z,97039.14
2019-03-24T14:56:52.028Z,97038.38
2019-03-24T14:59:24.619Z,97053.16
2019-03-24T15:01:57.646Z,97050.74
2019-03-24T15:04:30.275Z,97045.94
2019-03-24T15:07:02.987Z,97044.28
2019-03-24T15:09:35.739Z,97038.81
2019-03-24T15:12:08.436Z,97039.86
2019-03-24T15:14:41.368Z,97040.37
2019-03-24T15:17:14.012Z,97033.16
2019-03-24T15:19:46.923Z,97037.89
2019-03-24T15:22:19.579Z,97040.51
2019-03-24T15:24:53.289Z,97038.91
2019-03-24T15:27:26.238Z,97049.92
2019-03-24T15:29:59.256Z,97041.14
2019-03-24T15:32:32.186Z,97041.70
2019-03-24T15:35:05.231Z,97048.43
2019-03-24T15:37:38.598Z,97053.80
2019-03-24T15:40:12.980Z,97055.47
2019-03-24T15:42:46.869Z,97053.19
2019-03-24T15:45:19.708Z,97059.30
2019-03-24T15:47:52.699Z,97062.72
2019-03-24T15:50:25.726Z,97059.78
2019-03-24T15:53:00.144Z,97064.09
2019-03-24T15:55:34.237Z,97066.17
2019-03-24T15:58:07.338Z,97067.73
2019-03-24T16:00:48.896Z,97072.34
2019-03-24T16:03:21.847Z,97064.72
2019-03-24T16:05:56.456Z,97070.80
2019-03-24T16:08:29.599Z,97066.52
2019-03-24T16:11:02.442Z,97068.60
2019-03-24T16:13:35.323Z,97081.37
2019-03-24T16:16:08.233Z,97082.11
2019-03-24T16:18:41.322Z,97087.87
2019-03-24T16:21:14.187Z,97085.23
2019-03-24T16:23:47.053Z,97080.23
2019-03-24T16:26:19.954Z,97079.55
2019-03-24T16:28:52.911Z,97086.94
2019-03-24T16:31:25.895Z,97084.60
2019-03-24T16:33:58.794Z,97077.83
2019-03-24T16:36:32.729Z,97085.36
2019-03-24T16:39:07.396Z,97087.17
2019-03-24T16:41:40.329Z,97087.81
2019-03-24T16:44:13.564Z,97080.73
2019-03-24T16:46:46.689Z,97093.20
2019-03-24T16:49:19.478Z,97088.90
2019-03-24T16:51:52.330Z,97083.78
2019-03-24T16:54:24.943Z,97088.90
2019-03-24T16:56:57.706Z,97086.88
2019-03-24T16:59:30.261Z,97088.28
2019-03-24T17:02:02.801Z,97090.37
2019-03-24T17:04:35.364Z,97088.38
2019-03-24T17:07:07.988Z,97085.58
2019-03-24T17:09:40.579Z,97086.74
2019-03-24T17:12:14.356Z,97082.83
2019-03-24T17:14:47.151Z,97091.04
2019-03-24T17:17:19.762Z,97090.09
2019-03-24T17:19:52.384Z,97085.18
2019-03-24T17:22:25.068Z,97088.06
2019-03-24T17:24:59.434Z,97089.36
2019-03-24T17:27:32.027Z,97091.30
2019-03-24T17:30:05.868Z,97086.59
2019-03-24T17:32:38.632Z,97093.00
2019-03-24T17:35:12.621Z,97089.76
2019-03-24T17:37:45.234Z,97088.92
2019-03-24T17:40:18.819Z,97092.02
2019-03-24T17:42:51.572Z,97092.77
2019-03-24T17:45:24.192Z,97096.23
2019-03-24T17:47:56.802Z,97100.68
2019-03-24T17:50:29.415Z,97101.61
2019-03-24T17:53:02.018Z,97109.27
2019-03-24T17:55:35.023Z,97110.40
2019-03-24T17:58:07.674Z,97110.00
2019-03-24T18:00:47.525Z,97116.95
2019-03-24T18:03:20.505Z,97110.20
2019-03-24T18:05:53.071Z,97117.02
2019-03-24T18:08:25.701Z,97118.82
2019-03-24T18:10:58.444Z,97119.73
2019-03-24T18:13:32.050Z,97121.94
2019-03-24T18:16:04.779Z,97116.05
2019-03-24T18:18:37.409Z,97117.77
2019-03-24T18:21:10.046Z,97126.64
2019-03-24T18:23:43.669Z,97129.71
2019-03-24T18:26:16.395Z,97126.98
2019-03-24T18:28:50.187Z,97129.86
2019-03-24T18:31:22.829Z,97133.44
2019-03-24T18:33:55.505Z,97133.44
2019-03-24T18:36:28.279Z,97132.34
2019-03-24T18:39:00.915Z,97129.06
2019-03-24T18:41:34.236Z,97134.20
2019-03-24T18:44:07.123Z,97129.62
2019-03-24T18:46:39.846Z,97136.26
2019-03-24T18:49:12.696Z,97130.13
2019-03-24T18:51:45.506Z,97137.19
2019-03-24T18:54:18.512Z,97132.88
2019-03-24T18:56:51.234Z,97134.63
2019-03-24T18:59:24.326Z,97131.88
2019-03-24T19:01:57.406Z,97132.05
2019-03-24T19:04:30.199Z,97131.25
2019-03-24T19:07:02.888Z,97128.66
2019-03-24T19:09:35.877Z,97130.94
2019-03-24T19:12:08.508Z,97124.38
2019-03-24T19:14:41.305Z,97123.12
2019-03-24T19:17:13.947Z,97119.42
2019-03-24T19:19:46.824Z,97121.30
2019-03-24T19:22:19.475Z,97119.20
2019-03-24T19:24:52.227Z,97117.23
2019-03-24T19:27:24.964Z,97120.48
2019-03-24T19:29:57.726Z,97121.66
2019-03-24T19:32:30.703Z,97126.32
2019-03-24T19:35:03.615Z,97123.91
2019-03-24T19:37:37.546Z,97130.39
2019-03-24T19:40:26.250Z,97131.61
2019-03-24T19:43:00.329Z,97135.80
2019-03-24T19:45:32.994Z,97131.12
2019-03-24T19:48:05.868Z,97124.77
2019-03-24T19:50:38.416Z,97120.89
2019-03-24T19:53:12.260Z,97126.98
2019-03-24T19:55:45.046Z,97128.36
2019-03-24T19:58:17.731Z,97127.59
2019-03-24T20:00:51.301Z,97125.53
2019-03-24T20:03:23.907Z,97119.01
2019-03-24T20:05:56.441Z,97120.92
2019-03-24T20:08:29.039Z,97122.11
2019-03-24T20:11:01.570Z,97116.19
2019-03-24T20:13:34.087Z,97113.14
2019-03-24T20:16:08.302Z,97104.56
2019-03-24T20:18:40.889Z,97110.39
2019-03-24T20:21:13.730Z,97113.18
2019-03-24T20:23:46.244Z,97111.78
2019-03-24T20:26:18.776Z,97105.16
2019-03-24T20:28:51.458Z,97114.72
2019-03-24T20:31:24.019Z,97111.67
2019-03-24T20:33:56.545Z,97108.85
2019-03-24T20:36:30.119Z,97107.39
2019-03-24T20:39:02.714Z,97110.95
2019-03-24T20:41:37.519Z,97110.36
2019-03-24T20:44:11.405Z,97110.04
2019-03-24T20:46:44.301Z,97104.48
2019-03-24T20:49:16.814Z,97106.19
2019-03-24T20:51:49.423Z,97104.20
2019-03-24T20:54:22.015Z,97097.64
2019-03-24T20:56:54.544Z,97096.74
2019-03-24T20:59:27.065Z,97096.91
2019-03-24T21:01:59.596Z,97090.23
2019-03-24T21:04:32.366Z,97096.43
2019-03-24T21:07:05.044Z,97099.17
2019-03-24T21:09:37.658Z,97100.61
2019-03-24T21:12:10.181Z,97100.25
2019-03-24T21:14:42.798Z,97099.74
2019-03-24T21:17:15.443Z,97099.11
2019-03-24T21:19:47.951Z,97101.92
2019-03-24T21:22:20.640Z,97091.58
2019-03-24T21:24:53.162Z,97090.08
2019-03-24T21:27:25.704Z,97087.79
2019-03-24T21:29:58.227Z,97090.67
2019-03-24T21:32:30.845Z,97092.45
2019-03-24T21:35:03.433Z,97097.80
2019-03-24T21:37:36.689Z,97097.00
2019-03-24T21:40:09.691Z,97090.82
2019-03-24T21:42:42.215Z,97095.25
2019-03-24T21:45:16.396Z,97099.77
2019-03-24T21:47:48.939Z,97094.50
2019-03-24T21:50:21.544Z,97094.16
2019-03-24T21:52:54.149Z,97083.72
2019-03-24T21:55:26.680Z,97084.73
2019-03-24T21:57:59.218Z,97086.25
2019-03-24T22:00:37.254Z,97094.39
2019-03-24T22:03:09.870Z,97099.02
2019-03-24T22:05:42.456Z,97089.37
2019-03-24T22:08:15.088Z,97094.59
2019-03-24T22:10:47.667Z,97093.86
2019-03-24T22:13:20.268Z,97093.02
2019-03-24T22:15:53.161Z,97088.27
2019-03-24T22:18:25.696Z,97086.22
2019-03-24T22:20:58.294Z,97081.34
2019-03-24T22:23:30.815Z,97081.94
2019-03-24T22:26:03.403Z,97083.00
2019-03-24T22:28:35.941Z,97082.73
2019-03-24T22:31:08.800Z,97081.58
2019-03-24T22:33:41.301Z,97085.11
2019-03-24T22:36:13.832Z,97083.28
2019-03-24T22:38:46.459Z,97080.75
2019-03-24T22:41:19.053Z,97073.38
2019-03-24T22:43:51.587Z,97075.52
2019-03-24T22:46:24.487Z,97072.50
2019-03-24T22:48:57.027Z,97067.70
2019-03-24T22:51:30.700Z,97063.61
2019-03-24T22:54:03.698Z,97063.70
2019-03-24T22:56:36.671Z,97062.11
2019-03-24T22:59:09.282Z,97055.97
2019-03-24T23:01:41.970Z,97055.91
2019-03-24T23:04:15.103Z,97053.77
2019-03-24T23:06:47.766Z,97049.92
2019-03-24T23:09:20.312Z,97046.25
2019-03-24T23:11:52.912Z,97049.16
2019-03-24T23:14:25.446Z,97042.48
2019-03-24T23:16:58.053Z,97034.91
2019-03-24T23:19:30.661Z,97038.97
2019-03-24T23:22:06.020Z,97036.19
2019-03-24T23:24:38.548Z,97035.93
2019-03-24T23:27:11.965Z,97029.15
2019-03-24T23:29:44.576Z,97032.67
2019-03-24T23:32:17.162Z,97030.91
2019-03-24T23:34:49.684Z,97021.55
2019-03-24T23:37:22.210Z,97018.55
2019-03-24T23:39:54.831Z,97015.22
2019-03-24T23:42:28.581Z,97015.83
2019-03-24T23:45:01.101Z,97012.41
2019-03-24T23:47:33.715Z,97018.07
2019-03-24T23:50:07.094Z,97007.05
2019-03-24T23:52:39.631Z,97008.77
2019-03-24T23:55:12.563Z,97010.62
2019-03-24T23:57:45.234Z,97009.54
